createdAt,value
2018-11-28T00:02:05.293Z,2.90
2018-11-28T00:04:34.178Z,3.00
2018-11-28T00:07:08.182Z,3.00
2018-11-28T00:09:44.440Z,3.00
2018-11-28T00:12:13.251Z,3.10
2018-11-28T00:14:42.176Z,3.10
2018-11-28T00:17:12.023Z,3.10
2018-11-28T00:19:40.795Z,3.10
2018-11-28T00:22:09.716Z,3.20
2018-11-28T00:24:38.503Z,3.20
2018-11-28T00:27:07.348Z,3.20
2018-11-28T00:29:36.090Z,3.20
2018-11-28T00:32:05.298Z,3.30
2018-11-28T00:34:35.211Z,3.30
2018-11-28T00:37:04.949Z,3.30
2018-11-28T00:39:33.704Z,3.40
2018-11-28T00:42:02.407Z,3.30
2018-11-28T00:44:31.263Z,3.30
2018-11-28T00:47:00.141Z,3.30
2018-11-28T00:49:35.552Z,3.30
2018-11-28T00:52:05.528Z,3.30
2018-11-28T00:54:51.401Z,3.20
2018-11-28T01:12:35.243Z,2.90
2018-11-28T01:15:04.128Z,2.80
2018-11-28T01:17:32.884Z,2.80
2018-11-28T01:20:01.803Z,2.80
2018-11-28T01:22:30.573Z,2.80
2018-11-28T01:24:59.500Z,2.90
2018-11-28T01:27:28.804Z,2.90
2018-11-28T01:29:57.595Z,2.90
2018-11-28T01:32:26.407Z,2.90
2018-11-28T01:34:55.299Z,3.00
2018-11-28T01:37:24.258Z,3.00
2018-11-28T01:39:53.129Z,2.90
2018-11-28T01:42:22.069Z,2.90
2018-11-28T01:44:51.016Z,2.90
2018-11-28T01:47:19.783Z,2.90
2018-11-28T01:49:48.675Z,2.80
2018-11-28T01:52:17.513Z,2.80
2018-11-28T01:54:46.915Z,2.80
2018-11-28T01:57:15.785Z,2.80
2018-11-28T01:59:44.550Z,2.70
2018-11-28T02:02:13.439Z,2.70
2018-11-28T02:04:42.247Z,2.60
2018-11-28T02:07:11.254Z,2.60
2018-11-28T02:09:40.415Z,2.60
2018-11-28T02:12:09.450Z,2.50
2018-11-28T02:14:38.263Z,2.50
2018-11-28T02:17:07.451Z,2.50
2018-11-28T02:19:36.244Z,2.50
2018-11-28T02:22:05.152Z,2.50
2018-11-28T02:24:35.552Z,2.50
2018-11-28T02:27:04.377Z,2.50
2018-11-28T02:29:33.233Z,2.50
2018-11-28T02:32:02.242Z,2.50
2018-11-28T02:34:31.048Z,2.50
2018-11-28T02:36:59.869Z,2.50
2018-11-28T02:39:28.732Z,2.60
2018-11-28T02:42:11.497Z,2.50
2018-11-28T02:44:40.234Z,2.50
2018-11-28T02:47:08.998Z,2.40
2018-11-28T02:49:37.798Z,2.50
2018-11-28T02:52:06.766Z,2.50
2018-11-28T02:54:35.676Z,2.40
2018-11-28T02:57:04.466Z,2.40
2018-11-28T02:59:33.201Z,2.40
2018-11-28T03:02:02.194Z,2.50
2018-11-28T03:04:30.937Z,2.40
2018-11-28T03:06:59.665Z,2.40
2018-11-28T03:09:28.485Z,2.40
2018-11-28T03:11:57.307Z,2.40
2018-11-28T03:14:26.083Z,2.40
2018-11-28T03:16:54.865Z,2.30
2018-11-28T03:19:23.724Z,2.30
2018-11-28T03:21:52.523Z,2.30
2018-11-28T03:24:21.324Z,2.30
2018-11-28T03:26:50.141Z,2.30
2018-11-28T03:29:18.904Z,2.30
2018-11-28T03:31:47.666Z,2.30
2018-11-28T03:34:16.420Z,2.30
2018-11-28T03:36:45.120Z,2.20
2018-11-28T03:39:13.832Z,2.20
2018-11-28T03:41:42.583Z,2.20
2018-11-28T03:44:11.358Z,2.20
2018-11-28T03:46:40.152Z,2.20
2018-11-28T03:49:08.920Z,2.10
2018-11-28T03:51:37.678Z,2.10
2018-11-28T03:54:06.547Z,2.10
2018-11-28T03:56:35.271Z,2.10
2018-11-28T03:59:04.257Z,2.10
2018-11-28T04:01:32.976Z,2.10
2018-11-28T04:04:02.038Z,2.10
2018-11-28T04:06:30.760Z,2.00
2018-11-28T04:08:59.488Z,2.00
2018-11-28T04:11:28.287Z,2.00
2018-11-28T04:13:57.014Z,2.00
2018-11-28T04:16:25.775Z,2.00
2018-11-28T04:18:54.549Z,1.90
2018-11-28T04:21:24.578Z,1.90
2018-11-28T04:23:53.426Z,1.80
2018-11-28T04:26:22.372Z,1.80
2018-11-28T04:28:51.105Z,1.80
2018-11-28T04:31:20.010Z,1.80
2018-11-28T04:33:48.816Z,1.70
2018-11-28T04:36:17.586Z,1.70
2018-11-28T04:38:46.375Z,1.60
2018-11-28T04:41:15.181Z,1.60
2018-11-28T04:43:43.956Z,1.60
2018-11-28T04:46:12.674Z,1.60
2018-11-28T04:48:41.496Z,1.60
2018-11-28T04:51:10.269Z,1.60
2018-11-28T04:53:39.178Z,1.60
2018-11-28T04:56:07.982Z,1.70
2018-11-28T04:58:37.056Z,1.70
2018-11-28T05:01:06.017Z,1.60
2018-11-28T05:03:34.736Z,1.70
2018-11-28T05:06:03.824Z,1.70
2018-11-28T05:08:32.589Z,1.70
2018-11-28T05:11:01.374Z,1.60
2018-11-28T05:13:30.156Z,1.60
2018-11-28T05:15:58.978Z,1.60
2018-11-28T05:18:27.775Z,1.60
2018-11-28T05:20:56.578Z,1.60
2018-11-28T05:23:25.393Z,1.50
2018-11-28T05:25:54.383Z,1.50
2018-11-28T05:28:23.214Z,1.50
2018-11-28T05:30:51.964Z,1.50
2018-11-28T05:33:20.745Z,1.50
2018-11-28T05:35:49.455Z,1.60
2018-11-28T05:38:18.244Z,1.50
2018-11-28T05:40:46.970Z,1.50
2018-11-28T05:43:15.717Z,1.50
2018-11-28T05:45:44.627Z,1.50
2018-11-28T05:48:13.439Z,1.40
2018-11-28T05:50:42.197Z,1.50
2018-11-28T05:53:10.987Z,1.40
2018-11-28T05:55:39.764Z,1.40
2018-11-28T05:58:08.621Z,1.30
2018-11-28T06:00:39.292Z,1.50
2018-11-28T06:03:15.421Z,1.60
2018-11-28T06:05:44.276Z,1.50
2018-11-28T06:08:14.266Z,1.50
2018-11-28T06:10:43.078Z,1.40
2018-11-28T06:13:11.830Z,1.30
2018-11-28T06:15:40.632Z,1.30
2018-11-28T06:18:09.956Z,1.20
2018-11-28T06:20:39.060Z,1.30
2018-11-28T06:23:08.086Z,1.30
2018-11-28T06:25:37.191Z,1.20
2018-11-28T06:28:06.246Z,1.30
2018-11-28T06:30:35.145Z,1.00
2018-11-28T06:33:03.985Z,0.90
2018-11-28T06:35:32.794Z,0.90
2018-11-28T06:38:01.676Z,0.90
2018-11-28T06:40:30.445Z,0.90
2018-11-28T06:42:59.268Z,0.70
2018-11-28T06:45:28.589Z,0.60
2018-11-28T06:47:57.534Z,0.70
2018-11-28T06:50:26.308Z,0.90
2018-11-28T06:52:55.062Z,0.90
2018-11-28T06:55:23.849Z,0.90
2018-11-28T06:57:52.643Z,1.10
2018-11-28T07:00:22.625Z,1.10
2018-11-28T07:02:52.466Z,1.10
2018-11-28T07:05:21.716Z,1.30
2018-11-28T07:07:50.755Z,1.30
2018-11-28T07:10:21.491Z,1.30
2018-11-28T07:12:50.385Z,1.20
2018-11-28T07:15:22.295Z,1.20
2018-11-28T07:17:51.236Z,1.30
2018-11-28T07:20:20.074Z,1.30
2018-11-28T07:22:48.981Z,1.20
2018-11-28T07:25:19.374Z,1.20
2018-11-28T07:27:49.363Z,1.10
2018-11-28T07:30:20.389Z,1.30
2018-11-28T07:32:50.454Z,1.30
2018-11-28T07:35:19.461Z,1.40
2018-11-28T07:37:48.206Z,1.30
2018-11-28T07:40:19.299Z,1.30
2018-11-28T07:42:53.978Z,1.30
2018-11-28T07:45:23.135Z,1.20
2018-11-28T07:47:52.046Z,1.20
2018-11-28T07:50:21.032Z,1.30
2018-11-28T07:52:49.905Z,1.30
2018-11-28T07:55:18.755Z,1.40
2018-11-28T07:57:47.543Z,1.30
2018-11-28T08:00:16.464Z,1.30
2018-11-28T08:02:45.575Z,1.40
2018-11-28T08:05:14.422Z,1.30
2018-11-28T08:07:43.345Z,1.40
2018-11-28T08:10:18.598Z,1.40
2018-11-28T08:12:47.991Z,1.40
2018-11-28T08:15:17.351Z,1.50
2018-11-28T08:17:46.252Z,1.50
2018-11-28T08:20:15.121Z,1.60
2018-11-28T08:22:44.113Z,1.70
2018-11-28T08:25:14.097Z,1.70
2018-11-28T08:27:43.906Z,1.70
2018-11-28T08:30:19.831Z,1.70
2018-11-28T08:32:47.988Z,1.70
2018-11-28T08:35:16.949Z,1.60
2018-11-28T08:37:45.773Z,1.60
2018-11-28T08:40:19.650Z,1.60
2018-11-28T08:42:48.587Z,1.40
2018-11-28T08:45:19.343Z,1.40
2018-11-28T08:47:49.074Z,1.40
2018-11-28T08:50:23.132Z,1.40
2018-11-28T08:52:52.004Z,1.60
2018-11-28T08:55:21.604Z,1.50
2018-11-28T08:57:50.401Z,1.60
2018-11-28T09:00:22.244Z,1.60
2018-11-28T09:02:53.999Z,1.60
2018-11-28T09:05:22.852Z,1.70
2018-11-28T09:07:51.668Z,1.70
2018-11-28T09:10:22.926Z,1.40
2018-11-28T09:12:52.413Z,1.50
2018-11-28T09:15:23.314Z,1.60
2018-11-28T09:17:52.327Z,1.60
2018-11-28T09:20:21.219Z,1.60
2018-11-28T09:22:50.679Z,1.70
2018-11-28T09:25:20.237Z,1.70
2018-11-28T09:27:57.456Z,1.90
2018-11-28T09:30:26.274Z,1.80
2018-11-28T09:32:55.215Z,1.90
2018-11-28T09:35:24.064Z,1.90
2018-11-28T09:37:52.845Z,1.80
2018-11-28T09:40:23.497Z,1.80
2018-11-28T09:42:53.582Z,2.00
2018-11-28T09:45:22.695Z,1.90
2018-11-28T09:47:51.673Z,2.10
2018-11-28T09:50:21.455Z,2.10
2018-11-28T09:52:50.416Z,2.00
2018-11-28T09:55:27.042Z,2.20
2018-11-28T09:57:56.113Z,2.40
2018-11-28T10:00:26.686Z,2.60
2018-11-28T10:02:56.621Z,2.60
2018-11-28T10:05:27.597Z,2.60
2018-11-28T10:07:56.818Z,2.60
2018-11-28T10:10:26.179Z,2.60
2018-11-28T10:12:55.301Z,2.70
2018-11-28T10:15:25.129Z,2.60
2018-11-28T10:17:54.158Z,2.70
2018-11-28T10:20:23.235Z,2.80
2018-11-28T10:22:53.143Z,2.90
2018-11-28T10:25:24.637Z,3.00
2018-11-28T10:27:55.090Z,3.00
2018-11-28T10:30:26.051Z,2.70
2018-11-28T10:32:55.272Z,2.70
2018-11-28T10:35:24.040Z,2.70
2018-11-28T10:37:52.936Z,2.80
2018-11-28T10:40:22.615Z,2.80
2018-11-28T10:42:53.605Z,2.90
2018-11-28T10:45:24.107Z,2.90
2018-11-28T10:47:53.508Z,3.00
2018-11-28T10:50:22.662Z,2.80
2018-11-28T10:52:51.665Z,2.90
2018-11-28T10:55:22.468Z,3.00
2018-11-28T10:57:51.609Z,3.10
2018-11-28T11:00:37.420Z,3.00
2018-11-28T11:03:12.509Z,3.00
2018-11-28T11:05:46.912Z,3.00
2018-11-28T11:08:20.929Z,2.90
2018-11-28T11:11:31.226Z,2.90
2018-11-28T11:14:05.347Z,3.00
2018-11-28T11:16:34.310Z,3.10
2018-11-28T11:19:03.662Z,3.20
2018-11-28T11:21:32.558Z,3.20
2018-11-28T11:24:01.594Z,3.30
2018-11-28T11:26:30.640Z,3.30
2018-11-28T11:28:59.660Z,3.40
2018-11-28T11:31:28.957Z,3.50
2018-11-28T11:33:57.821Z,3.50
2018-11-28T11:36:26.666Z,3.40
2018-11-28T11:38:55.759Z,3.40
2018-11-28T11:41:25.135Z,3.20
2018-11-28T11:43:53.980Z,3.20
2018-11-28T11:46:22.956Z,3.10
2018-11-28T11:48:51.774Z,2.90
2018-11-28T11:51:20.719Z,2.70
2018-11-28T11:53:49.520Z,2.80
2018-11-28T11:56:18.501Z,2.80
2018-11-28T11:58:47.312Z,3.00
2018-11-28T12:01:16.490Z,3.00
2018-11-28T12:03:45.410Z,3.10
2018-11-28T12:06:14.572Z,3.10
2018-11-28T12:08:43.803Z,3.30
2018-11-28T12:11:12.708Z,3.30
2018-11-28T12:13:41.729Z,3.40
2018-11-28T12:16:10.724Z,3.40
2018-11-28T12:18:39.813Z,3.20
2018-11-28T12:21:08.830Z,3.20
2018-11-28T12:23:37.851Z,3.00
2018-11-28T12:26:06.908Z,2.80
2018-11-28T12:28:35.792Z,2.70
2018-11-28T12:31:05.014Z,2.60
2018-11-28T12:33:33.862Z,2.50
2018-11-28T12:36:02.856Z,2.60
2018-11-28T12:38:31.675Z,2.70
2018-11-28T12:41:00.773Z,3.00
2018-11-28T12:43:29.773Z,3.00
2018-11-28T12:45:58.584Z,2.90
2018-11-28T12:48:27.479Z,3.00
2018-11-28T12:50:56.827Z,3.00
2018-11-28T12:53:26.254Z,2.80
2018-11-28T12:55:55.610Z,2.70
2018-11-28T12:58:25.229Z,2.60
2018-11-28T13:00:54.598Z,2.60
2018-11-28T13:03:24.641Z,2.60
2018-11-28T13:05:53.803Z,2.70
2018-11-28T13:08:24.994Z,2.80
2018-11-28T13:10:54.056Z,2.80
2018-11-28T13:13:22.887Z,3.00
2018-11-28T13:15:51.710Z,3.10
2018-11-28T13:18:20.614Z,3.10
2018-11-28T13:20:49.801Z,3.00
2018-11-28T13:23:18.767Z,3.00
2018-11-28T13:25:51.468Z,3.00
2018-11-28T13:28:20.578Z,3.00
2018-11-28T13:30:51.579Z,2.90
2018-11-28T13:33:20.426Z,3.00
2018-11-28T13:35:49.392Z,3.00
2018-11-28T13:38:18.244Z,3.00
2018-11-28T13:40:48.053Z,3.00
2018-11-28T13:43:16.975Z,3.00
2018-11-28T13:45:47.752Z,3.10
2018-11-28T13:48:17.233Z,3.10
2018-11-28T13:50:50.233Z,3.10
2018-11-28T13:53:19.483Z,3.10
2018-11-28T13:56:57.223Z,3.10
2018-11-28T13:58:23.571Z,3.10
2018-11-28T14:00:53.040Z,3.10
2018-11-28T14:03:22.210Z,3.00
2018-11-28T14:05:51.633Z,2.90
2018-11-28T14:08:20.434Z,2.90
2018-11-28T14:10:49.193Z,2.80
2018-11-28T14:13:18.174Z,2.80
2018-11-28T14:15:47.022Z,2.80
2018-11-28T14:18:17.153Z,2.80
2018-11-28T14:20:46.134Z,2.70
2018-11-28T14:23:14.947Z,2.70
2018-11-28T14:25:43.731Z,2.80
2018-11-28T14:28:12.904Z,2.80
2018-11-28T14:30:42.090Z,2.80
2018-11-28T14:33:11.971Z,2.90
2018-11-28T14:35:40.902Z,2.80
2018-11-28T14:38:09.722Z,2.80
2018-11-28T14:40:38.477Z,2.60
2018-11-28T14:43:07.818Z,2.70
2018-11-28T14:45:37.008Z,2.60
2018-11-28T14:48:05.899Z,2.60
2018-11-28T14:50:34.959Z,2.50
2018-11-28T14:53:04.096Z,2.50
2018-11-28T14:55:36.662Z,2.40
2018-11-28T14:58:06.092Z,2.50
2018-11-28T15:00:35.138Z,2.60
2018-11-28T15:03:08.888Z,2.50
2018-11-28T15:06:11.483Z,2.60
2018-11-28T15:08:40.507Z,2.50
2018-11-28T15:11:16.119Z,2.40
2018-11-28T15:13:45.379Z,2.40
2018-11-28T15:16:14.445Z,2.30
2018-11-28T15:18:43.215Z,2.10
2018-11-28T15:21:12.295Z,2.10
2018-11-28T15:23:41.565Z,2.00
2018-11-28T15:26:10.731Z,2.00
2018-11-28T15:28:40.544Z,1.90
2018-11-28T15:31:08.849Z,1.80
2018-11-28T15:33:37.914Z,1.80
2018-11-28T15:36:06.752Z,1.70
2018-11-28T15:38:35.612Z,1.70
2018-11-28T15:41:04.638Z,1.80
2018-11-28T15:43:33.672Z,1.70
2018-11-28T15:46:02.587Z,1.70
2018-11-28T15:48:31.587Z,1.70
2018-11-28T15:51:01.155Z,1.60
2018-11-28T15:53:30.519Z,1.60
2018-11-28T15:55:59.538Z,1.60
2018-11-28T15:58:28.395Z,1.70
2018-11-28T16:00:58.383Z,1.80
2018-11-28T16:03:27.935Z,1.90
2018-11-28T16:05:58.392Z,1.80
2018-11-28T16:08:27.789Z,1.70
2018-11-28T16:10:57.428Z,1.80
2018-11-28T16:13:26.926Z,1.60
2018-11-28T16:15:59.354Z,1.90
2018-11-28T16:18:29.127Z,1.90
2018-11-28T16:20:58.183Z,2.00
2018-11-28T16:23:27.143Z,2.00
2018-11-28T16:25:56.368Z,2.00
2018-11-28T16:28:26.212Z,2.00
2018-11-28T16:30:55.200Z,1.90
2018-11-28T16:33:24.307Z,1.80
2018-11-28T16:35:53.226Z,1.80
2018-11-28T16:38:22.191Z,1.80
2018-11-28T16:40:51.368Z,1.80
2018-11-28T16:43:20.767Z,1.80
2018-11-28T16:45:52.709Z,1.70
2018-11-28T16:48:21.779Z,1.70
2018-11-28T16:50:51.232Z,1.70
2018-11-28T16:53:20.319Z,1.90
2018-11-28T16:55:50.198Z,1.90
2018-11-28T16:58:19.344Z,1.80
2018-11-28T17:00:50.754Z,1.90
2018-11-28T17:03:19.681Z,1.90
2018-11-28T17:05:49.715Z,1.80
2018-11-28T17:08:18.544Z,1.80
2018-11-28T17:10:47.311Z,1.90
2018-11-28T17:13:16.290Z,2.00
2018-11-28T17:15:45.149Z,2.10
2018-11-28T17:18:14.125Z,2.10
2018-11-28T17:20:43.481Z,2.20
2018-11-28T17:23:12.339Z,2.20
2018-11-28T17:25:41.421Z,2.20
2018-11-28T17:28:10.312Z,2.20
2018-11-28T17:30:39.246Z,2.30
2018-11-28T17:33:08.039Z,2.00
2018-11-28T17:35:37.137Z,2.10
2018-11-28T17:38:06.884Z,2.00
2018-11-28T17:40:35.952Z,2.10
2018-11-28T17:43:04.740Z,2.10
2018-11-28T17:45:33.600Z,2.20
2018-11-28T17:48:02.397Z,2.10
2018-11-28T17:50:31.482Z,2.00
2018-11-28T17:53:15.547Z,2.10
2018-11-28T17:55:48.443Z,2.20
2018-11-28T17:58:17.340Z,2.20
2018-11-28T18:00:46.199Z,2.20
2018-11-28T18:03:15.084Z,2.10
2018-11-28T18:05:44.140Z,2.00
2018-11-28T18:08:12.980Z,2.00
2018-11-28T18:10:41.866Z,2.20
2018-11-28T18:13:12.656Z,2.10
2018-11-28T18:15:42.576Z,2.20
2018-11-28T18:18:12.457Z,2.10
2018-11-28T18:20:41.257Z,2.00
2018-11-28T18:23:12.088Z,2.00
2018-11-28T18:25:42.124Z,1.90
2018-11-28T18:28:14.078Z,2.10
2018-11-28T18:30:44.786Z,2.20
2018-11-28T18:33:14.435Z,2.30
2018-11-28T18:35:43.665Z,2.20
2018-11-28T18:38:12.544Z,2.20
2018-11-28T18:40:41.883Z,2.20
2018-11-28T18:43:12.615Z,2.00
2018-11-28T18:45:44.320Z,2.00
2018-11-28T18:48:14.420Z,2.00
2018-11-28T18:50:43.622Z,2.10
2018-11-28T18:53:13.100Z,2.00
2018-11-28T18:55:42.443Z,1.90
2018-11-28T18:58:12.157Z,2.00
2018-11-28T19:00:41.244Z,2.10
2018-11-28T19:03:10.315Z,2.20
2018-11-28T19:05:39.660Z,2.20
2018-11-28T19:08:08.899Z,2.20
2018-11-28T19:10:37.878Z,2.20
2018-11-28T19:13:07.312Z,2.30
2018-11-28T19:15:36.719Z,2.40
2018-11-28T19:18:05.947Z,2.30
2018-11-28T19:20:35.039Z,2.10
2018-11-28T19:23:04.135Z,2.10
2018-11-28T19:25:33.035Z,2.10
2018-11-28T19:28:01.865Z,1.90
2018-11-28T19:30:35.979Z,2.20
2018-11-28T19:33:05.346Z,2.20
2018-11-28T19:35:34.175Z,2.30
2018-11-28T19:38:03.028Z,2.20
2018-11-28T19:40:34.928Z,2.20
2018-11-28T19:43:03.942Z,2.30
2018-11-28T19:45:32.820Z,2.30
2018-11-28T19:48:01.750Z,2.40
2018-11-28T19:50:33.051Z,2.40
2018-11-28T19:53:01.948Z,2.40
2018-11-28T19:55:30.877Z,2.20
2018-11-28T19:57:59.770Z,2.20
2018-11-28T20:00:29.575Z,2.10
2018-11-28T20:02:58.437Z,2.10
2018-11-28T20:05:27.223Z,2.00
2018-11-28T20:07:56.711Z,2.00
2018-11-28T20:10:27.351Z,1.90
2018-11-28T20:12:56.423Z,2.00
2018-11-28T20:15:26.685Z,1.90
2018-11-28T20:17:56.944Z,2.00
2018-11-28T20:20:25.753Z,2.00
2018-11-28T20:22:55.413Z,2.10
2018-11-28T20:25:25.039Z,2.00
2018-11-28T20:27:57.409Z,2.00
2018-11-28T20:30:29.708Z,2.00
2018-11-28T20:32:58.635Z,2.00
2018-11-28T20:35:27.665Z,2.10
2018-11-28T20:37:56.715Z,2.20
2018-11-28T20:40:25.525Z,2.20
2018-11-28T20:42:55.168Z,2.00
2018-11-28T20:45:23.954Z,2.10
2018-11-28T20:47:52.736Z,1.90
2018-11-28T20:50:24.298Z,1.80
2018-11-28T20:52:56.354Z,1.90
2018-11-28T20:55:25.263Z,1.80
2018-11-28T20:57:54.148Z,1.80
2018-11-28T21:00:24.119Z,1.90
2018-11-28T21:02:52.925Z,1.90
2018-11-28T21:05:21.723Z,1.90
2018-11-28T21:07:50.651Z,1.90
2018-11-28T21:10:24.554Z,1.90
2018-11-28T21:12:54.208Z,2.00
2018-11-28T21:15:23.114Z,2.10
2018-11-28T21:17:51.966Z,2.10
2018-11-28T21:20:21.987Z,2.20
2018-11-28T21:22:54.204Z,2.20
2018-11-28T21:25:23.376Z,2.20
2018-11-28T21:27:52.688Z,2.20
2018-11-28T21:30:21.938Z,2.20
2018-11-28T21:32:51.785Z,2.30
2018-11-28T21:35:24.962Z,2.10
2018-11-28T21:37:53.814Z,2.10
2018-11-28T21:40:22.598Z,2.00
2018-11-28T21:42:51.406Z,1.90
2018-11-28T21:45:20.937Z,2.00
2018-11-28T21:47:49.777Z,2.10
2018-11-28T21:50:20.127Z,2.10
2018-11-28T21:52:49.063Z,2.30
2018-11-28T21:55:18.752Z,2.30
2018-11-28T21:57:47.638Z,2.20
2018-11-28T22:00:21.485Z,2.10
2018-11-28T22:02:50.286Z,2.00
2018-11-28T22:05:20.153Z,2.10
2018-11-28T22:07:49.037Z,2.00
2018-11-28T22:10:19.766Z,1.80
2018-11-28T22:12:48.739Z,1.90
2018-11-28T22:15:18.185Z,1.80
2018-11-28T22:17:52.433Z,1.80
2018-11-28T22:20:21.391Z,1.80
2018-11-28T22:22:50.188Z,1.90
2018-11-28T22:25:20.753Z,1.80
2018-11-28T22:27:49.631Z,1.80
2018-11-28T22:30:24.203Z,1.80
2018-11-28T22:32:52.962Z,2.00
2018-11-28T22:35:21.674Z,2.00
2018-11-28T22:37:50.413Z,2.00
2018-11-28T22:40:24.268Z,1.90
2018-11-28T22:42:53.020Z,1.90
2018-11-28T22:45:24.837Z,1.90
2018-11-28T22:47:53.623Z,2.00
2018-11-28T22:50:22.356Z,2.10
2018-11-28T22:52:51.294Z,2.20
2018-11-28T22:55:20.174Z,2.20
2018-11-28T22:57:49.077Z,2.30
2018-11-28T23:00:25.510Z,2.40
2018-11-28T23:02:55.468Z,2.40
2018-11-28T23:05:27.696Z,2.40
2018-11-28T23:07:57.464Z,2.40
2018-11-28T23:10:26.331Z,2.40
2018-11-28T23:12:55.256Z,2.20
2018-11-28T23:15:24.067Z,2.20
2018-11-28T23:17:55.238Z,2.20
2018-11-28T23:20:21.678Z,2.20
2018-11-28T23:22:50.575Z,2.20
2018-11-28T23:25:19.383Z,2.20
2018-11-28T23:27:48.191Z,2.00
2018-11-28T23:30:17.904Z,2.00
2018-11-28T23:32:47.069Z,1.90
2018-11-28T23:35:15.845Z,1.90
2018-11-28T23:37:45.710Z,1.90
2018-11-28T23:40:15.469Z,2.00
2018-11-28T23:42:44.314Z,2.10
2018-11-28T23:45:14.908Z,2.00
2018-11-28T23:47:43.697Z,2.10
2018-11-28T23:50:18.119Z,2.00
2018-11-28T23:52:47.329Z,2.00
2018-11-28T23:55:22.965Z,1.90
2018-11-28T23:57:52.144Z,1.80
